createdAt,value
2022-12-27T00:02:22.100Z,1.73
2022-12-27T00:04:49.696Z,1.93
2022-12-27T00:07:16.329Z,1.70
2022-12-27T00:09:42.911Z,2.33
2022-12-27T00:12:09.631Z,1.83
2022-12-27T00:14:36.308Z,2.63
2022-12-27T00:17:02.892Z,2.30
2022-12-27T00:19:29.507Z,2.40
2022-12-27T00:21:56.029Z,2.00
2022-12-27T00:24:22.614Z,2.20
2022-12-27T00:26:49.190Z,2.50
2022-12-27T00:29:15.758Z,2.80
2022-12-27T00:31:42.361Z,2.27
2022-12-27T00:34:09.051Z,2.37
2022-12-27T00:36:35.675Z,2.57
2022-12-27T00:39:02.635Z,2.60
2022-12-27T00:41:29.545Z,2.37
2022-12-27T00:43:56.133Z,2.30
2022-12-27T00:46:22.843Z,2.73
2022-12-27T00:48:49.425Z,2.47
2022-12-27T00:51:21.783Z,2.40
2022-12-27T00:53:49.369Z,2.30
2022-12-27T00:56:18.624Z,2.77
2022-12-27T00:58:45.451Z,2.50
2022-12-27T01:01:13.512Z,2.63
2022-12-27T01:03:40.308Z,2.83
2022-12-27T01:06:09.413Z,2.40
2022-12-27T01:08:36.129Z,2.80
2022-12-27T01:11:03.186Z,2.63
2022-12-27T01:13:30.092Z,2.70
2022-12-27T01:15:56.691Z,2.70
2022-12-27T01:18:23.298Z,2.83
2022-12-27T01:20:49.892Z,2.77
2022-12-27T01:23:16.523Z,2.67
2022-12-27T01:25:43.129Z,2.47
2022-12-27T01:28:09.726Z,2.60
2022-12-27T01:30:36.291Z,2.80
2022-12-27T01:33:02.870Z,2.70
2022-12-27T01:35:29.494Z,2.67
2022-12-27T01:37:58.356Z,2.80
2022-12-27T01:40:25.834Z,3.20
2022-12-27T01:42:52.414Z,2.40
2022-12-27T01:45:26.978Z,3.27
2022-12-27T01:48:00.725Z,2.50
2022-12-27T01:50:47.306Z,3.33
2022-12-27T01:53:30.441Z,3.10
2022-12-27T01:56:06.010Z,3.00
2022-12-27T01:58:50.313Z,3.37
2022-12-27T02:01:30.685Z,2.63
2022-12-27T02:04:02.235Z,2.93
2022-12-27T02:06:30.891Z,3.30
2022-12-27T02:09:12.420Z,3.17
2022-12-27T02:11:53.305Z,3.80
2022-12-27T02:14:33.081Z,3.20
2022-12-27T02:17:03.037Z,3.10
2022-12-27T02:19:41.815Z,3.00
2022-12-27T02:22:14.394Z,2.90
2022-12-27T02:25:16.847Z,3.70
2022-12-27T02:28:22.571Z,2.80
2022-12-27T02:30:53.836Z,3.53
2022-12-27T02:33:25.093Z,3.33
2022-12-27T02:36:00.069Z,2.63
2022-12-27T02:38:40.860Z,3.50
2022-12-27T02:41:28.955Z,3.20
2022-12-27T02:44:15.932Z,3.67
2022-12-27T02:47:01.523Z,3.10
2022-12-27T02:49:49.330Z,2.90
2022-12-27T02:53:01.758Z,2.80
2022-12-27T02:56:23.117Z,3.17
2022-12-27T02:59:12.635Z,2.70
2022-12-27T03:02:03.978Z,2.97
2022-12-27T03:04:42.559Z,3.10
2022-12-27T03:07:26.468Z,3.50
2022-12-27T03:10:45.389Z,4.33
2022-12-27T03:13:48.892Z,3.97
2022-12-27T03:16:55.528Z,3.00
2022-12-27T03:19:44.204Z,3.10
2022-12-27T03:22:30.753Z,3.67
2022-12-27T03:25:16.585Z,2.80
2022-12-27T03:27:45.172Z,3.13
2022-12-27T03:30:31.233Z,3.47
2022-12-27T03:33:15.220Z,3.20
2022-12-27T03:36:19.635Z,2.97
2022-12-27T03:38:55.171Z,2.80
2022-12-27T03:41:46.175Z,3.70
2022-12-27T03:44:25.500Z,3.33
2022-12-27T03:46:58.429Z,3.03
2022-12-27T03:49:41.030Z,3.47
2022-12-27T03:52:45.029Z,3.23
2022-12-27T03:55:12.215Z,2.90
2022-12-27T03:57:39.487Z,3.13
2022-12-27T04:00:06.818Z,3.10
2022-12-27T04:02:33.694Z,3.17
2022-12-27T04:05:00.400Z,2.97
2022-12-27T04:07:26.960Z,3.27
2022-12-27T04:10:12.161Z,2.80
2022-12-27T04:12:57.499Z,2.83
2022-12-27T04:15:42.834Z,2.63
2022-12-27T04:18:28.250Z,2.67
2022-12-27T04:21:13.575Z,3.60
2022-12-27T04:23:58.931Z,2.77
2022-12-27T04:26:44.248Z,2.80
2022-12-27T04:29:29.587Z,2.70
2022-12-27T04:31:59.334Z,2.13
2022-12-27T04:34:44.088Z,2.30
2022-12-27T04:37:13.413Z,2.27
2022-12-27T04:39:40.111Z,2.77
2022-12-27T04:42:25.423Z,2.53
2022-12-27T04:45:15.196Z,2.20
2022-12-27T04:48:00.743Z,2.47
2022-12-27T04:50:48.292Z,2.03
2022-12-27T04:53:36.407Z,2.33
2022-12-27T04:56:04.376Z,2.30
2022-12-27T04:58:31.278Z,2.30
2022-12-27T05:01:20.045Z,1.87
2022-12-27T05:03:49.268Z,2.10
2022-12-27T05:06:16.750Z,2.93
2022-12-27T05:09:02.313Z,2.67
2022-12-27T05:11:47.720Z,2.50
2022-12-27T05:14:15.478Z,2.70
2022-12-27T05:16:44.197Z,2.23
2022-12-27T05:19:13.198Z,2.50
2022-12-27T05:22:01.093Z,2.30
2022-12-27T05:24:46.626Z,2.43
2022-12-27T05:27:14.199Z,2.60
2022-12-27T05:29:40.898Z,1.70
2022-12-27T05:32:12.829Z,2.40
2022-12-27T05:34:40.052Z,2.87
2022-12-27T05:37:06.637Z,2.53
2022-12-27T05:39:33.275Z,2.30
2022-12-27T05:42:03.281Z,2.37
2022-12-27T05:44:29.847Z,2.10
2022-12-27T05:46:56.477Z,3.40
2022-12-27T05:49:23.122Z,3.30
2022-12-27T05:51:49.819Z,3.20
2022-12-27T05:54:16.659Z,3.00
2022-12-27T05:56:43.218Z,3.07
2022-12-27T05:59:09.818Z,3.20
2022-12-27T06:01:36.486Z,3.43
2022-12-27T06:04:03.083Z,2.83
2022-12-27T06:06:29.633Z,3.37
2022-12-27T06:08:56.221Z,2.80
2022-12-27T06:11:22.936Z,3.27
2022-12-27T06:13:54.107Z,4.27
2022-12-27T06:16:22.072Z,3.93
2022-12-27T06:18:48.849Z,3.67
2022-12-27T06:21:18.290Z,4.03
2022-12-27T06:23:45.662Z,5.43
2022-12-27T06:26:15.560Z,3.47
2022-12-27T06:28:42.132Z,3.03
2022-12-27T06:31:08.721Z,3.30
2022-12-27T06:33:35.713Z,3.23
2022-12-27T06:36:07.235Z,3.23
2022-12-27T06:38:33.933Z,3.00
2022-12-27T06:41:04.990Z,3.10
2022-12-27T06:43:32.063Z,3.33
2022-12-27T06:46:00.526Z,3.30
2022-12-27T06:48:28.110Z,3.97
2022-12-27T06:50:55.274Z,4.70
2022-12-27T06:53:21.940Z,4.13
2022-12-27T06:55:48.736Z,4.10
2022-12-27T06:58:15.583Z,3.83
2022-12-27T07:00:43.200Z,3.40
2022-12-27T07:03:10.174Z,3.00
2022-12-27T07:05:37.572Z,3.30
2022-12-27T07:08:05.240Z,3.10
2022-12-27T07:10:31.928Z,3.10
2022-12-27T07:12:58.555Z,2.90
2022-12-27T07:15:25.242Z,2.70
2022-12-27T07:17:51.788Z,2.63
2022-12-27T07:20:18.438Z,2.80
2022-12-27T07:22:45.028Z,2.67
2022-12-27T07:25:11.679Z,3.60
2022-12-27T07:27:38.248Z,4.00
2022-12-27T07:30:05.532Z,3.77
2022-12-27T07:32:32.450Z,3.10
2022-12-27T07:34:59.037Z,3.90
2022-12-27T07:37:25.619Z,4.07
2022-12-27T07:39:52.268Z,3.60
2022-12-27T07:42:18.817Z,3.10
2022-12-27T07:44:45.414Z,4.10
2022-12-27T07:47:12.019Z,2.90
2022-12-27T07:49:38.619Z,3.17
2022-12-27T07:52:05.966Z,4.00
2022-12-27T07:54:32.616Z,3.20
2022-12-27T07:56:59.444Z,3.60
2022-12-27T07:59:27.481Z,2.73
2022-12-27T08:02:06.221Z,3.30
2022-12-27T08:04:35.943Z,2.33
2022-12-27T08:07:24.807Z,3.00
2022-12-27T08:09:51.834Z,3.40
2022-12-27T08:12:18.463Z,3.00
2022-12-27T08:14:45.105Z,3.67
2022-12-27T08:17:20.265Z,3.50
2022-12-27T08:19:47.080Z,3.33
2022-12-27T08:22:13.798Z,3.70
2022-12-27T08:24:41.488Z,4.10
2022-12-27T08:27:08.623Z,4.60
2022-12-27T08:29:35.461Z,4.63
2022-12-27T08:32:02.050Z,6.43
2022-12-27T08:34:28.723Z,4.20
2022-12-27T08:36:56.404Z,4.43
2022-12-27T08:39:24.209Z,4.17
2022-12-27T08:41:53.317Z,5.00
2022-12-27T08:44:20.133Z,3.87
2022-12-27T08:46:47.417Z,4.77
2022-12-27T08:49:14.224Z,5.63
2022-12-27T08:51:41.679Z,5.13
2022-12-27T08:54:09.081Z,5.03
2022-12-27T08:56:36.093Z,6.40
2022-12-27T08:59:03.191Z,5.97
2022-12-27T09:01:29.946Z,4.43
2022-12-27T09:03:56.704Z,4.50
2022-12-27T09:06:24.845Z,6.27
2022-12-27T09:08:54.583Z,5.43
2022-12-27T09:11:27.266Z,5.80
2022-12-27T09:13:54.494Z,5.80
2022-12-27T09:16:24.021Z,5.70
2022-12-27T09:18:52.781Z,6.40
2022-12-27T09:21:21.138Z,6.10
2022-12-27T09:23:48.724Z,6.20
2022-12-27T09:26:16.446Z,5.30
2022-12-27T09:28:43.859Z,5.80
2022-12-27T09:31:12.387Z,5.17
2022-12-27T09:33:39.127Z,5.07
2022-12-27T09:36:11.743Z,4.90
2022-12-27T09:38:39.547Z,4.10
2022-12-27T09:41:37.728Z,4.67
2022-12-27T09:44:13.906Z,4.80
2022-12-27T09:46:55.425Z,4.30
2022-12-27T09:49:32.564Z,4.83
2022-12-27T09:52:11.724Z,5.03
2022-12-27T09:54:45.302Z,6.47
2022-12-27T09:57:21.162Z,6.93
2022-12-27T09:59:50.434Z,7.50
2022-12-27T10:02:22.348Z,8.17
2022-12-27T10:05:19.045Z,6.73
2022-12-27T10:07:54.824Z,8.50
2022-12-27T10:10:46.194Z,7.90
2022-12-27T10:13:18.585Z,8.13
2022-12-27T10:16:02.589Z,6.83
2022-12-27T10:19:01.178Z,6.97
2022-12-27T10:21:29.524Z,6.70
2022-12-27T10:24:28.719Z,6.50
2022-12-27T10:26:58.567Z,6.70
2022-12-27T10:29:26.347Z,6.30
2022-12-27T10:31:58.951Z,5.73
2022-12-27T10:34:26.696Z,6.60
2022-12-27T10:36:53.752Z,5.70
2022-12-27T10:39:26.231Z,5.53
2022-12-27T10:42:29.378Z,6.40
2022-12-27T10:45:24.754Z,6.70
2022-12-27T10:47:52.814Z,6.67
2022-12-27T10:50:24.763Z,5.30
2022-12-27T10:52:57.353Z,5.67
2022-12-27T10:55:37.148Z,5.23
2022-12-27T10:58:29.488Z,4.97
2022-12-27T11:00:57.621Z,5.13
2022-12-27T11:03:26.132Z,5.47
2022-12-27T11:06:02.091Z,5.07
2022-12-27T11:08:29.825Z,5.00
2022-12-27T11:11:31.968Z,5.70
2022-12-27T11:14:11.256Z,5.00
2022-12-27T11:16:40.776Z,4.70
2022-12-27T11:19:19.221Z,4.33
2022-12-27T11:21:45.892Z,4.23
2022-12-27T11:24:16.334Z,4.27
2022-12-27T11:26:59.592Z,4.77
2022-12-27T11:29:29.883Z,4.47
2022-12-27T11:31:57.201Z,3.90
2022-12-27T11:34:34.861Z,4.37
2022-12-27T11:37:14.413Z,3.40
2022-12-27T11:40:11.187Z,4.50
2022-12-27T11:42:42.865Z,4.10
2022-12-27T11:45:18.644Z,4.27
2022-12-27T11:48:07.374Z,4.37
2022-12-27T11:50:47.429Z,5.10
2022-12-27T11:53:41.362Z,4.00
2022-12-27T11:56:26.818Z,5.17
2022-12-27T11:59:16.183Z,4.67
2022-12-27T12:02:06.425Z,3.87
2022-12-27T12:05:04.271Z,4.17
2022-12-27T12:07:36.684Z,4.13
2022-12-27T12:10:48.033Z,3.70
2022-12-27T12:13:57.207Z,3.90
2022-12-27T12:17:08.181Z,3.23
2022-12-27T12:19:46.436Z,3.70
2022-12-27T12:22:50.985Z,3.33
2022-12-27T12:25:50.526Z,3.27
2022-12-27T12:28:56.932Z,3.40
2022-12-27T12:31:42.527Z,3.30
2022-12-27T12:34:36.656Z,3.07
2022-12-27T12:37:09.121Z,2.67
2022-12-27T12:39:35.786Z,3.33
2022-12-27T12:42:40.445Z,3.50
2022-12-27T12:45:22.539Z,3.13
2022-12-27T12:48:12.074Z,3.00
2022-12-27T12:50:57.425Z,3.30
2022-12-27T12:53:51.746Z,3.13
2022-12-27T12:56:24.416Z,2.20
2022-12-27T12:59:04.450Z,2.57
2022-12-27T13:02:04.796Z,2.40
2022-12-27T13:04:37.375Z,2.30
2022-12-27T13:07:15.697Z,2.23
2022-12-27T13:10:01.095Z,2.90
2022-12-27T13:12:52.544Z,2.47
2022-12-27T13:15:37.944Z,2.27
2022-12-27T13:18:26.598Z,1.97
2022-12-27T13:21:32.616Z,2.67
2022-12-27T13:24:12.269Z,2.90
2022-12-27T13:26:49.730Z,1.87
2022-12-27T13:29:31.688Z,2.03
2022-12-27T13:32:13.389Z,2.17
2022-12-27T13:34:56.862Z,1.80
2022-12-27T13:37:48.260Z,2.43
2022-12-27T13:40:51.066Z,2.53
2022-12-27T13:43:48.586Z,2.23
2022-12-27T13:46:42.741Z,2.30
2022-12-27T13:49:44.495Z,2.47
2022-12-27T13:52:46.030Z,2.37
2022-12-27T13:55:15.759Z,2.10
2022-12-27T13:58:00.913Z,2.67
2022-12-27T14:00:51.436Z,2.53
2022-12-27T14:03:32.981Z,2.63
2022-12-27T14:06:07.540Z,2.03
2022-12-27T14:09:23.010Z,2.30
2022-12-27T14:12:19.803Z,2.67
2022-12-27T14:14:47.847Z,2.73
2022-12-27T14:17:49.315Z,2.60
2022-12-27T14:20:40.330Z,2.50
2022-12-27T14:23:16.242Z,2.30
2022-12-27T14:25:58.248Z,2.63
2022-12-27T14:28:39.797Z,2.83
2022-12-27T14:31:28.133Z,2.30
2022-12-27T14:34:23.944Z,2.97
2022-12-27T14:36:53.492Z,2.77
2022-12-27T14:39:41.047Z,3.10
2022-12-27T14:42:22.606Z,2.80
2022-12-27T14:45:01.449Z,2.73
2022-12-27T14:47:55.498Z,2.47
2022-12-27T14:50:40.290Z,2.20
2022-12-27T14:53:44.583Z,2.30
2022-12-27T14:56:30.023Z,2.50
2022-12-27T14:59:11.544Z,3.20
2022-12-27T15:02:25.320Z,2.50
2022-12-27T15:05:27.901Z,3.33
2022-12-27T15:08:23.132Z,2.50
2022-12-27T15:11:19.963Z,2.23
2022-12-27T15:13:52.580Z,2.20
2022-12-27T15:16:41.827Z,2.37
2022-12-27T15:19:30.214Z,2.57
2022-12-27T15:22:25.299Z,1.93
2022-12-27T15:25:26.492Z,3.70
2022-12-27T15:28:22.259Z,2.40
2022-12-27T15:31:10.199Z,2.83
2022-12-27T15:33:58.227Z,3.50
2022-12-27T15:36:45.865Z,3.00
2022-12-27T15:39:34.088Z,2.67
2022-12-27T15:42:03.559Z,2.60
2022-12-27T15:44:46.269Z,5.77
2022-12-27T15:47:30.686Z,3.07
2022-12-27T15:50:12.566Z,2.77
2022-12-27T15:52:45.296Z,3.33
2022-12-27T15:55:30.217Z,2.77
2022-12-27T15:58:14.865Z,1.87
2022-12-27T16:00:43.498Z,2.43
2022-12-27T16:03:33.747Z,2.57
2022-12-27T16:06:01.857Z,2.20
2022-12-27T16:08:39.506Z,1.90
2022-12-27T16:11:10.218Z,2.60
2022-12-27T16:13:43.433Z,2.57
2022-12-27T16:16:33.246Z,2.70
2022-12-27T16:19:21.854Z,2.20
2022-12-27T16:21:48.848Z,2.40
2022-12-27T16:24:20.435Z,2.60
2022-12-27T16:27:03.144Z,2.40
2022-12-27T16:29:36.880Z,2.40
2022-12-27T16:32:24.906Z,2.37
2022-12-27T16:37:33.138Z,2.83
2022-12-27T16:40:42.923Z,2.33
2022-12-27T16:43:09.471Z,2.83
2022-12-27T16:45:39.251Z,2.40
2022-12-27T16:48:33.798Z,1.87
2022-12-27T16:51:51.893Z,1.50
2022-12-27T16:55:17.096Z,2.00
2022-12-27T16:57:49.101Z,1.83
2022-12-27T17:00:36.828Z,1.77
2022-12-27T17:03:20.912Z,2.27
2022-12-27T17:06:30.194Z,1.60
2022-12-27T17:08:39.409Z,2.17
2022-12-27T17:11:27.047Z,1.67
2022-12-27T17:13:59.830Z,2.17
2022-12-27T17:16:45.765Z,2.00
2022-12-27T17:19:30.466Z,1.60
2022-12-27T17:22:01.035Z,1.40
2022-12-27T17:24:30.901Z,2.33
2022-12-27T17:27:15.380Z,2.13
2022-12-27T17:30:00.885Z,2.00
2022-12-27T17:32:54.728Z,2.43
2022-12-27T17:35:51.934Z,1.70
2022-12-27T17:38:31.926Z,2.10
2022-12-27T17:41:46.147Z,1.83
2022-12-27T17:44:38.849Z,1.70
2022-12-27T17:47:33.389Z,2.10
2022-12-27T17:50:06.245Z,2.10
2022-12-27T17:52:55.798Z,1.40
2022-12-27T17:55:44.576Z,2.17
2022-12-27T17:58:15.974Z,1.40
2022-12-27T18:00:57.101Z,1.80
2022-12-27T18:03:26.771Z,1.73
2022-12-27T18:05:53.350Z,1.77
2022-12-27T18:08:29.437Z,2.00
2022-12-27T18:10:57.841Z,3.07
2022-12-27T18:13:26.841Z,2.53
2022-12-27T18:15:54.318Z,1.43
2022-12-27T18:18:28.297Z,1.80
2022-12-27T18:21:00.450Z,1.60
2022-12-27T18:23:27.300Z,1.70
2022-12-27T18:26:03.109Z,1.60
2022-12-27T18:28:34.220Z,1.87
2022-12-27T18:31:21.757Z,1.97
2022-12-27T18:34:06.926Z,1.20
2022-12-27T18:36:39.750Z,2.00
2022-12-27T18:39:08.508Z,1.70
2022-12-27T18:41:43.139Z,1.80
2022-12-27T18:44:26.502Z,1.67
2022-12-27T18:46:57.067Z,1.67
2022-12-27T18:49:37.385Z,2.07
2022-12-27T18:52:21.112Z,2.40
2022-12-27T18:54:48.131Z,2.30
2022-12-27T18:57:35.411Z,1.87
2022-12-27T19:00:20.077Z,3.10
2022-12-27T19:02:46.896Z,1.80
2022-12-27T19:05:19.481Z,1.80
2022-12-27T19:07:51.286Z,2.03
2022-12-27T19:10:35.992Z,1.70
2022-12-27T19:13:03.026Z,1.83
2022-12-27T19:15:50.432Z,2.27
2022-12-27T19:18:27.233Z,2.00
2022-12-27T19:21:02.126Z,1.97
2022-12-27T19:23:39.644Z,2.10
2022-12-27T19:26:15.147Z,1.90
2022-12-27T19:28:44.223Z,3.10
2022-12-27T19:31:21.682Z,2.50
2022-12-27T19:33:52.894Z,1.90
2022-12-27T19:36:26.898Z,2.17
2022-12-27T19:38:54.900Z,1.50
2022-12-27T19:41:21.528Z,1.53
2022-12-27T19:43:48.142Z,2.17
2022-12-27T19:46:15.332Z,1.73
2022-12-27T19:48:42.089Z,2.00
2022-12-27T19:51:20.287Z,1.80
2022-12-27T19:53:57.408Z,1.40
2022-12-27T19:59:31.995Z,2.00
2022-12-27T20:09:52.341Z,2.37
2022-12-27T20:12:20.108Z,2.03
2022-12-27T20:14:47.728Z,2.27
2022-12-27T20:17:14.687Z,2.23
2022-12-27T20:19:41.257Z,2.23
2022-12-27T20:22:18.633Z,3.00
2022-12-27T20:24:47.067Z,2.80
2022-12-27T20:27:13.630Z,3.20
2022-12-27T20:29:46.839Z,3.67
2022-12-27T20:32:16.439Z,4.00
2022-12-27T20:34:43.170Z,2.53
2022-12-27T20:38:05.728Z,1.80
2022-12-27T20:40:32.710Z,2.03
2022-12-27T20:42:59.329Z,3.50
2022-12-27T20:45:25.886Z,2.90
2022-12-27T20:47:53.687Z,2.90
2022-12-27T20:50:20.285Z,3.17
2022-12-27T20:52:47.441Z,2.67
2022-12-27T20:55:14.152Z,2.40
2022-12-27T20:57:42.518Z,2.80
2022-12-27T21:00:10.721Z,2.80
2022-12-27T21:02:41.998Z,2.30
2022-12-27T21:05:09.584Z,1.80
2022-12-27T21:07:36.614Z,2.00
2022-12-27T21:10:06.023Z,2.23
2022-12-27T21:12:33.067Z,2.67
2022-12-27T21:14:59.709Z,1.60
2022-12-27T21:17:26.401Z,1.80
2022-12-27T21:19:53.249Z,2.90
2022-12-27T21:22:19.999Z,2.30
2022-12-27T21:24:46.883Z,2.50
2022-12-27T21:27:16.442Z,2.17
2022-12-27T21:29:43.011Z,2.00
2022-12-27T21:32:09.624Z,2.40
2022-12-27T21:34:43.899Z,1.93
2022-12-27T21:37:13.529Z,1.57
2022-12-27T21:39:40.492Z,4.03
2022-12-27T21:42:07.131Z,3.20
2022-12-27T21:44:35.336Z,2.77
2022-12-27T21:47:02.065Z,3.03
2022-12-27T21:49:28.655Z,2.47
2022-12-27T21:51:55.685Z,2.37
2022-12-27T21:54:22.423Z,3.00
2022-12-27T21:56:49.157Z,2.77
2022-12-27T21:59:15.752Z,2.30
2022-12-27T22:01:50.655Z,4.27
2022-12-27T22:04:22.048Z,2.37
2022-12-27T22:06:49.057Z,2.03
2022-12-27T22:09:16.065Z,2.47
2022-12-27T22:11:42.823Z,2.27
2022-12-27T22:14:09.457Z,3.17
2022-12-27T22:16:38.705Z,2.20
2022-12-27T22:19:08.300Z,1.90
2022-12-27T22:21:36.181Z,1.90
2022-12-27T22:24:04.445Z,2.50
2022-12-27T22:26:37.211Z,2.90
2022-12-27T22:29:05.028Z,2.00
2022-12-27T22:31:35.225Z,2.40
2022-12-27T22:34:03.330Z,1.80
2022-12-27T22:36:30.265Z,1.97
2022-12-27T22:38:58.437Z,1.73
2022-12-27T22:41:27.760Z,1.77
2022-12-27T22:43:55.739Z,1.70
2022-12-27T22:46:23.518Z,2.10
2022-12-27T22:49:00.322Z,1.33
2022-12-27T22:51:32.388Z,1.90
2022-12-27T22:54:00.178Z,2.00
2022-12-27T22:56:36.279Z,1.73
2022-12-27T22:59:10.028Z,2.10
2022-12-27T23:01:37.121Z,1.80
2022-12-27T23:04:05.603Z,1.50
2022-12-27T23:06:34.708Z,1.40
2022-12-27T23:09:01.738Z,2.13
2022-12-27T23:11:30.782Z,1.90
2022-12-27T23:14:11.764Z,1.70
2022-12-27T23:16:44.507Z,1.43
2022-12-27T23:19:12.505Z,1.77
2022-12-27T23:21:39.079Z,1.37
2022-12-27T23:24:06.721Z,2.13
2022-12-27T23:26:33.435Z,1.90
2022-12-27T23:29:00.011Z,1.83
2022-12-27T23:31:27.141Z,1.60
2022-12-27T23:33:54.040Z,1.93
2022-12-27T23:36:21.521Z,1.43
2022-12-27T23:38:48.717Z,1.80
2022-12-27T23:41:20.050Z,1.70
2022-12-27T23:43:52.646Z,1.40
2022-12-27T23:46:31.711Z,1.60
2022-12-27T23:49:00.684Z,1.80
2022-12-27T23:51:28.139Z,1.63
2022-12-27T23:53:55.233Z,1.20
2022-12-27T23:56:24.562Z,1.40
2022-12-27T23:58:53.763Z,1.23
